sensor_id;sensor_type;location;lat;lon;timestamp;pressure;altitude;pressure_sealevel;temperature;humidity
69027;BME280;56080;47.594;19.116;2022-09-17T00:07:50;99422;;;14.95;90.86
69027;BME280;56080;47.594;19.116;2022-09-17T00:12:50;99423;;;14.91;91.35
69027;BME280;56080;47.594;19.116;2022-09-17T00:17:54;99434;;;14.90;91.04
69027;BME280;56080;47.594;19.116;2022-09-17T00:22:50;99439;;;14.78;91.66
69027;BME280;56080;47.594;19.116;2022-09-17T00:27:50;99430;;;14.79;92.04
69027;BME280;56080;47.594;19.116;2022-09-17T00:32:52;99424;;;14.81;91.90
69027;BME280;56080;47.594;19.116;2022-09-17T00:37:50;99405;;;14.72;91.32
69027;BME280;56080;47.594;19.116;2022-09-17T00:42:52;99394;;;14.80;90.63
69027;BME280;56080;47.594;19.116;2022-09-17T00:47:58;99396;;;14.77;90.89
69027;BME280;56080;47.594;19.116;2022-09-17T00:52:52;99394;;;14.90;91.16
69027;BME280;56080;47.594;19.116;2022-09-17T00:57:51;99387;;;14.87;92.27
69027;BME280;56080;47.594;19.116;2022-09-17T01:02:52;99386;;;14.68;94.86
69027;BME280;56080;47.594;19.116;2022-09-17T01:13:01;99391;;;14.72;93.70
69027;BME280;56080;47.594;19.116;2022-09-17T01:33:10;99387;;;14.63;95.13
69027;BME280;56080;47.594;19.116;2022-09-17T01:42:53;99392;;;14.46;95.17
69027;BME280;56080;47.594;19.116;2022-09-17T01:47:52;99409;;;14.48;96.22
69027;BME280;56080;47.594;19.116;2022-09-17T01:52:52;99409;;;14.65;95.40
69027;BME280;56080;47.594;19.116;2022-09-17T01:57:52;99406;;;14.64;92.71
69027;BME280;56080;47.594;19.116;2022-09-17T02:12:54;99405;;;14.67;89.23
69027;BME280;56080;47.594;19.116;2022-09-17T02:17:53;99395;;;14.54;88.39
69027;BME280;56080;47.594;19.116;2022-09-17T02:22:54;99388;;;14.57;87.59
69027;BME280;56080;47.594;19.116;2022-09-17T02:32:50;99389;;;14.37;86.05
69027;BME280;56080;47.594;19.116;2022-09-17T02:37:52;99386;;;14.39;85.59
69027;BME280;56080;47.594;19.116;2022-09-17T02:57:53;99361;;;14.35;85.61
69027;BME280;56080;47.594;19.116;2022-09-17T03:07:50;99343;;;14.34;85.18
69027;BME280;56080;47.594;19.116;2022-09-17T03:12:50;99339;;;14.29;85.00
69027;BME280;56080;47.594;19.116;2022-09-17T03:17:54;99333;;;14.16;84.25
69027;BME280;56080;47.594;19.116;2022-09-17T03:22:50;99322;;;14.08;85.67
69027;BME280;56080;47.594;19.116;2022-09-17T03:27:51;99312;;;14.06;83.86
69027;BME280;56080;47.594;19.116;2022-09-17T03:32:50;99289;;;14.08;83.76
69027;BME280;56080;47.594;19.116;2022-09-17T03:37:50;99270;;;13.84;82.29
69027;BME280;56080;47.594;19.116;2022-09-17T03:42:51;99258;;;13.98;82.12
69027;BME280;56080;47.594;19.116;2022-09-17T03:47:50;99253;;;14.00;80.99
69027;BME280;56080;47.594;19.116;2022-09-17T03:52:50;99272;;;14.02;81.66
69027;BME280;56080;47.594;19.116;2022-09-17T03:57:50;99277;;;13.98;82.29
69027;BME280;56080;47.594;19.116;2022-09-17T04:02:50;99265;;;13.97;81.72
69027;BME280;56080;47.594;19.116;2022-09-17T04:07:50;99266;;;13.85;80.35
69027;BME280;56080;47.594;19.116;2022-09-17T04:12:50;99298;;;13.84;80.36
69027;BME280;56080;47.594;19.116;2022-09-17T04:17:53;99282;;;13.66;79.81
69027;BME280;56080;47.594;19.116;2022-09-17T04:22:53;99296;;;13.87;81.21
69027;BME280;56080;47.594;19.116;2022-09-17T04:27:50;99283;;;13.81;79.46
69027;BME280;56080;47.594;19.116;2022-09-17T04:32:50;99277;;;13.74;78.88
69027;BME280;56080;47.594;19.116;2022-09-17T04:37:51;99268;;;13.63;77.96
69027;BME280;56080;47.594;19.116;2022-09-17T04:42:51;99265;;;13.75;77.49
69027;BME280;56080;47.594;19.116;2022-09-17T04:47:50;99269;;;13.77;77.70
69027;BME280;56080;47.594;19.116;2022-09-17T04:52:50;99253;;;13.73;76.90
69027;BME280;56080;47.594;19.116;2022-09-17T04:57:51;99262;;;13.63;77.52
69027;BME280;56080;47.594;19.116;2022-09-17T05:02:51;99261;;;13.79;78.32
69027;BME280;56080;47.594;19.116;2022-09-17T05:07:50;99273;;;13.88;78.89
69027;BME280;56080;47.594;19.116;2022-09-17T05:12:51;99271;;;13.78;78.39
69027;BME280;56080;47.594;19.116;2022-09-17T05:17:50;99279;;;13.74;78.37
69027;BME280;56080;47.594;19.116;2022-09-17T05:22:51;99280;;;13.80;79.50
69027;BME280;56080;47.594;19.116;2022-09-17T05:27:51;99275;;;13.87;79.39
69027;BME280;56080;47.594;19.116;2022-09-17T05:32:57;99279;;;13.68;78.46
69027;BME280;56080;47.594;19.116;2022-09-17T05:37:50;99275;;;13.75;80.60
69027;BME280;56080;47.594;19.116;2022-09-17T05:42:50;99282;;;13.67;82.72
69027;BME280;56080;47.594;19.116;2022-09-17T05:47:59;99299;;;13.75;80.14
69027;BME280;56080;47.594;19.116;2022-09-17T05:52:50;99307;;;13.73;78.65
69027;BME280;56080;47.594;19.116;2022-09-17T06:02:54;99322;;;13.66;77.55
69027;BME280;56080;47.594;19.116;2022-09-17T06:07:51;99328;;;13.69;77.24
69027;BME280;56080;47.594;19.116;2022-09-17T06:12:54;99321;;;13.74;78.35
69027;BME280;56080;47.594;19.116;2022-09-17T06:17:51;99328;;;13.84;77.84
69027;BME280;56080;47.594;19.116;2022-09-17T06:22:54;99329;;;13.88;77.87
69027;BME280;56080;47.594;19.116;2022-09-17T06:27:50;99316;;;14.00;77.98
69027;BME280;56080;47.594;19.116;2022-09-17T06:32:50;99301;;;13.95;76.71
69027;BME280;56080;47.594;19.116;2022-09-17T06:37:50;99325;;;14.09;76.37
69027;BME280;56080;47.594;19.116;2022-09-17T06:42:55;99336;;;13.84;75.65
69027;BME280;56080;47.594;19.116;2022-09-17T06:47:51;99335;;;14.07;76.06
69027;BME280;56080;47.594;19.116;2022-09-17T06:52:51;99336;;;14.04;75.71
69027;BME280;56080;47.594;19.116;2022-09-17T06:57:50;99339;;;13.93;75.62
69027;BME280;56080;47.594;19.116;2022-09-17T07:02:58;99355;;;14.01;75.61
69027;BME280;56080;47.594;19.116;2022-09-17T07:07:51;99348;;;14.03;75.44
69027;BME280;56080;47.594;19.116;2022-09-17T07:12:51;99342;;;14.18;76.24
69027;BME280;56080;47.594;19.116;2022-09-17T07:17:50;99350;;;14.32;75.45
69027;BME280;56080;47.594;19.116;2022-09-17T07:22:54;99349;;;14.26;74.54
69027;BME280;56080;47.594;19.116;2022-09-17T07:27:51;99340;;;14.17;74.55
69027;BME280;56080;47.594;19.116;2022-09-17T07:32:50;99342;;;14.23;74.84
69027;BME280;56080;47.594;19.116;2022-09-17T07:37:50;99341;;;14.12;75.42
69027;BME280;56080;47.594;19.116;2022-09-17T07:42:50;99334;;;14.36;75.09
69027;BME280;56080;47.594;19.116;2022-09-17T07:47:50;99346;;;14.53;74.37
69027;BME280;56080;47.594;19.116;2022-09-17T07:52:50;99355;;;14.88;73.88
69027;BME280;56080;47.594;19.116;2022-09-17T07:57:51;99361;;;14.89;73.27
69027;BME280;56080;47.594;19.116;2022-09-17T08:02:52;99362;;;14.99;72.34
69027;BME280;56080;47.594;19.116;2022-09-17T08:07:51;99362;;;14.86;71.85
69027;BME280;56080;47.594;19.116;2022-09-17T08:12:53;99359;;;15.02;71.56
69027;BME280;56080;47.594;19.116;2022-09-17T08:17:51;99380;;;14.92;70.89
69027;BME280;56080;47.594;19.116;2022-09-17T08:22:56;99387;;;14.82;71.05
69027;BME280;56080;47.594;19.116;2022-09-17T08:27:52;99389;;;14.84;71.70
69027;BME280;56080;47.594;19.116;2022-09-17T08:32:53;99393;;;14.86;70.46
69027;BME280;56080;47.594;19.116;2022-09-17T08:37:53;99390;;;14.75;69.74
69027;BME280;56080;47.594;19.116;2022-09-17T08:42:52;99379;;;14.72;70.05
69027;BME280;56080;47.594;19.116;2022-09-17T08:47:51;99376;;;14.69;69.73
69027;BME280;56080;47.594;19.116;2022-09-17T08:52:56;99372;;;14.46;69.53
69027;BME280;56080;47.594;19.116;2022-09-17T08:57:55;99362;;;14.45;70.32
69027;BME280;56080;47.594;19.116;2022-09-17T09:03:12;99357;;;14.48;70.79
69027;BME280;56080;47.594;19.116;2022-09-17T09:07:52;99363;;;14.34;71.95
69027;BME280;56080;47.594;19.116;2022-09-17T09:12:51;99374;;;14.27;72.43
69027;BME280;56080;47.594;19.116;2022-09-17T09:17:50;99391;;;14.41;72.99
69027;BME280;56080;47.594;19.116;2022-09-17T09:22:51;99393;;;14.39;73.08
69027;BME280;56080;47.594;19.116;2022-09-17T09:32:55;99380;;;14.45;72.87
69027;BME280;56080;47.594;19.116;2022-09-17T09:37:53;99378;;;14.37;72.42
69027;BME280;56080;47.594;19.116;2022-09-17T09:42:52;99371;;;14.50;72.32
69027;BME280;56080;47.594;19.116;2022-09-17T10:02:52;99389;;;14.60;72.83
69027;BME280;56080;47.594;19.116;2022-09-17T10:07:50;99384;;;14.59;72.05
69027;BME280;56080;47.594;19.116;2022-09-17T10:22:51;99352;;;14.75;70.55
69027;BME280;56080;47.594;19.116;2022-09-17T10:27:50;99362;;;14.88;69.85
69027;BME280;56080;47.594;19.116;2022-09-17T10:33:10;99348;;;14.91;69.34
69027;BME280;56080;47.594;19.116;2022-09-17T10:37:51;99320;;;14.87;67.84
69027;BME280;56080;47.594;19.116;2022-09-17T10:43:14;99318;;;14.97;66.68
69027;BME280;56080;47.594;19.116;2022-09-17T10:47:51;99344;;;14.82;65.30
69027;BME280;56080;47.594;19.116;2022-09-17T11:07:54;99262;;;14.83;63.37
69027;BME280;56080;47.594;19.116;2022-09-17T11:13:01;99266;;;14.90;62.39
69027;BME280;56080;47.594;19.116;2022-09-17T11:32:55;99320;;;14.94;61.37
69027;BME280;56080;47.594;19.116;2022-09-17T11:43:00;99295;;;14.87;59.83
69027;BME280;56080;47.594;19.116;2022-09-17T11:47:53;99298;;;15.07;59.73
69027;BME280;56080;47.594;19.116;2022-09-17T11:57:51;99278;;;14.93;58.48
69027;BME280;56080;47.594;19.116;2022-09-17T12:02:55;99250;;;14.90;58.76
69027;BME280;56080;47.594;19.116;2022-09-17T12:07:53;99240;;;14.93;58.76
69027;BME280;56080;47.594;19.116;2022-09-17T12:12:53;99207;;;15.06;58.81
69027;BME280;56080;47.594;19.116;2022-09-17T12:17:53;99199;;;15.27;58.47
69027;BME280;56080;47.594;19.116;2022-09-17T12:22:51;99215;;;15.32;58.39
69027;BME280;56080;47.594;19.116;2022-09-17T12:28:00;99194;;;15.22;57.58
69027;BME280;56080;47.594;19.116;2022-09-17T12:42:55;99167;;;15.10;57.79
69027;BME280;56080;47.594;19.116;2022-09-17T12:48:07;99152;;;15.05;58.30
69027;BME280;56080;47.594;19.116;2022-09-17T12:53:00;99140;;;14.92;58.27
69027;BME280;56080;47.594;19.116;2022-09-17T13:22:51;99173;;;14.86;60.92
69027;BME280;56080;47.594;19.116;2022-09-17T13:28:06;99166;;;14.82;61.97
69027;BME280;56080;47.594;19.116;2022-09-17T13:32:51;99164;;;14.80;61.38
69027;BME280;56080;47.594;19.116;2022-09-17T13:42:52;99147;;;14.62;61.43
69027;BME280;56080;47.594;19.116;2022-09-17T13:47:51;99126;;;14.52;61.88
69027;BME280;56080;47.594;19.116;2022-09-17T13:52:51;99132;;;14.68;61.65
69027;BME280;56080;47.594;19.116;2022-09-17T13:57:51;99150;;;14.59;61.81
69027;BME280;56080;47.594;19.116;2022-09-17T14:02:51;99119;;;14.49;62.26
69027;BME280;56080;47.594;19.116;2022-09-17T14:07:52;99129;;;14.47;62.22
69027;BME280;56080;47.594;19.116;2022-09-17T14:12:52;99151;;;14.51;62.38
69027;BME280;56080;47.594;19.116;2022-09-17T14:17:51;99164;;;14.48;62.58
69027;BME280;56080;47.594;19.116;2022-09-17T14:22:55;99157;;;14.43;62.59
69027;BME280;56080;47.594;19.116;2022-09-17T14:27:54;99163;;;14.48;62.37
69027;BME280;56080;47.594;19.116;2022-09-17T14:33:07;99168;;;14.47;62.08
69027;BME280;56080;47.594;19.116;2022-09-17T14:37:52;99177;;;14.42;61.91
69027;BME280;56080;47.594;19.116;2022-09-17T14:42:52;99189;;;14.38;62.11
69027;BME280;56080;47.594;19.116;2022-09-17T14:52:52;99199;;;14.10;63.10
69027;BME280;56080;47.594;19.116;2022-09-17T14:57:52;99194;;;14.08;63.27
69027;BME280;56080;47.594;19.116;2022-09-17T15:02:52;99178;;;14.15;63.28
69027;BME280;56080;47.594;19.116;2022-09-17T15:08:03;99176;;;14.20;63.18
69027;BME280;56080;47.594;19.116;2022-09-17T15:12:51;99192;;;14.14;62.76
69027;BME280;56080;47.594;19.116;2022-09-17T15:17:51;99186;;;14.06;62.74
69027;BME280;56080;47.594;19.116;2022-09-17T15:23:08;99189;;;14.04;62.47
69027;BME280;56080;47.594;19.116;2022-09-17T15:27:53;99186;;;13.97;62.46
69027;BME280;56080;47.594;19.116;2022-09-17T15:32:52;99177;;;13.94;62.52
69027;BME280;56080;47.594;19.116;2022-09-17T15:38:20;99160;;;13.93;62.79
69027;BME280;56080;47.594;19.116;2022-09-17T15:42:54;99158;;;13.97;63.82
69027;BME280;56080;47.594;19.116;2022-09-17T15:57:51;99139;;;13.76;64.48
69027;BME280;56080;47.594;19.116;2022-09-17T16:02:51;99134;;;13.73;65.11
69027;BME280;56080;47.594;19.116;2022-09-17T16:07:51;99143;;;13.69;67.30
69027;BME280;56080;47.594;19.116;2022-09-17T16:12:51;99150;;;13.68;66.78
69027;BME280;56080;47.594;19.116;2022-09-17T16:17:51;99139;;;13.67;67.93
69027;BME280;56080;47.594;19.116;2022-09-17T16:22:51;99131;;;13.62;68.08
69027;BME280;56080;47.594;19.116;2022-09-17T16:27:53;99117;;;13.50;66.79
69027;BME280;56080;47.594;19.116;2022-09-17T16:32:51;99108;;;13.55;66.71
69027;BME280;56080;47.594;19.116;2022-09-17T16:37:52;99115;;;13.57;67.54
69027;BME280;56080;47.594;19.116;2022-09-17T16:42:51;99096;;;13.45;66.98
69027;BME280;56080;47.594;19.116;2022-09-17T16:47:51;99099;;;13.46;67.95
69027;BME280;56080;47.594;19.116;2022-09-17T16:52:51;99114;;;13.28;68.98
69027;BME280;56080;47.594;19.116;2022-09-17T16:57:51;99126;;;13.32;69.50
69027;BME280;56080;47.594;19.116;2022-09-17T17:02:52;99117;;;13.36;70.36
69027;BME280;56080;47.594;19.116;2022-09-17T17:07:51;99108;;;13.42;70.65
69027;BME280;56080;47.594;19.116;2022-09-17T17:12:51;99134;;;13.24;74.04
69027;BME280;56080;47.594;19.116;2022-09-17T17:17:51;99154;;;13.16;77.97
69027;BME280;56080;47.594;19.116;2022-09-17T17:22:51;99129;;;13.09;79.43
69027;BME280;56080;47.594;19.116;2022-09-17T17:27:51;99114;;;12.99;77.03
69027;BME280;56080;47.594;19.116;2022-09-17T17:32:51;99115;;;12.94;80.00
69027;BME280;56080;47.594;19.116;2022-09-17T17:37:51;99135;;;12.86;78.67
69027;BME280;56080;47.594;19.116;2022-09-17T17:42:51;99122;;;12.94;80.56
69027;BME280;56080;47.594;19.116;2022-09-17T17:47:51;99125;;;12.91;81.18
69027;BME280;56080;47.594;19.116;2022-09-17T17:52:53;99122;;;12.85;80.95
69027;BME280;56080;47.594;19.116;2022-09-17T17:57:53;99121;;;12.76;82.49
69027;BME280;56080;47.594;19.116;2022-09-17T18:02:51;99152;;;12.83;80.49
69027;BME280;56080;47.594;19.116;2022-09-17T18:07:51;99167;;;12.87;79.20
69027;BME280;56080;47.594;19.116;2022-09-17T18:12:52;99162;;;12.86;77.85
69027;BME280;56080;47.594;19.116;2022-09-17T18:17:52;99176;;;12.91;78.18
69027;BME280;56080;47.594;19.116;2022-09-17T18:22:52;99192;;;12.84;79.15
69027;BME280;56080;47.594;19.116;2022-09-17T18:27:51;99183;;;12.82;79.11
69027;BME280;56080;47.594;19.116;2022-09-17T18:32:52;99172;;;12.78;76.99
69027;BME280;56080;47.594;19.116;2022-09-17T18:37:51;99178;;;12.82;76.61
69027;BME280;56080;47.594;19.116;2022-09-17T18:42:51;99178;;;12.78;78.20
69027;BME280;56080;47.594;19.116;2022-09-17T18:47:51;99182;;;12.77;78.29
69027;BME280;56080;47.594;19.116;2022-09-17T18:52:51;99182;;;12.76;78.29
69027;BME280;56080;47.594;19.116;2022-09-17T18:57:51;99174;;;12.73;79.04
69027;BME280;56080;47.594;19.116;2022-09-17T19:02:51;99174;;;12.69;79.32
69027;BME280;56080;47.594;19.116;2022-09-17T19:07:54;99160;;;12.62;78.89
69027;BME280;56080;47.594;19.116;2022-09-17T19:12:51;99155;;;12.52;79.39
69027;BME280;56080;47.594;19.116;2022-09-17T19:17:52;99153;;;12.44;78.03
69027;BME280;56080;47.594;19.116;2022-09-17T19:22:51;99154;;;12.47;77.60
69027;BME280;56080;47.594;19.116;2022-09-17T19:27:55;99168;;;12.57;78.78
69027;BME280;56080;47.594;19.116;2022-09-17T19:32:51;99181;;;12.65;76.23
69027;BME280;56080;47.594;19.116;2022-09-17T19:37:51;99184;;;12.67;76.71
69027;BME280;56080;47.594;19.116;2022-09-17T19:47:55;99194;;;12.77;76.58
69027;BME280;56080;47.594;19.116;2022-09-17T19:52:51;99204;;;12.68;77.06
69027;BME280;56080;47.594;19.116;2022-09-17T19:57:51;99208;;;12.66;76.75
69027;BME280;56080;47.594;19.116;2022-09-17T20:02:51;99209;;;12.64;77.44
69027;BME280;56080;47.594;19.116;2022-09-17T20:07:51;99206;;;12.63;76.91
69027;BME280;56080;47.594;19.116;2022-09-17T20:12:51;99201;;;12.64;78.02
69027;BME280;56080;47.594;19.116;2022-09-17T20:17:51;99198;;;12.46;78.96
69027;BME280;56080;47.594;19.116;2022-09-17T20:22:51;99195;;;12.50;79.18
69027;BME280;56080;47.594;19.116;2022-09-17T20:27:51;99203;;;12.42;79.59
69027;BME280;56080;47.594;19.116;2022-09-17T20:32:53;99213;;;12.49;79.97
69027;BME280;56080;47.594;19.116;2022-09-17T20:38:01;99214;;;12.41;79.74
69027;BME280;56080;47.594;19.116;2022-09-17T20:42:51;99213;;;12.44;81.13
69027;BME280;56080;47.594;19.116;2022-09-17T20:47:51;99221;;;12.35;80.53
69027;BME280;56080;47.594;19.116;2022-09-17T20:52:51;99225;;;12.31;80.58
69027;BME280;56080;47.594;19.116;2022-09-17T20:57:52;99226;;;12.35;80.94
69027;BME280;56080;47.594;19.116;2022-09-17T21:02:53;99227;;;12.21;80.90
69027;BME280;56080;47.594;19.116;2022-09-17T21:12:51;99229;;;12.31;80.96
69027;BME280;56080;47.594;19.116;2022-09-17T21:17:51;99235;;;12.26;80.86
69027;BME280;56080;47.594;19.116;2022-09-17T21:22:51;99240;;;12.35;81.84
69027;BME280;56080;47.594;19.116;2022-09-17T21:27:51;99239;;;12.27;81.48
69027;BME280;56080;47.594;19.116;2022-09-17T21:32:52;99240;;;12.38;82.24
69027;BME280;56080;47.594;19.116;2022-09-17T21:37:51;99243;;;12.28;82.85
69027;BME280;56080;47.594;19.116;2022-09-17T21:42:51;99251;;;12.35;82.90
69027;BME280;56080;47.594;19.116;2022-09-17T21:52:52;99243;;;12.33;81.82
69027;BME280;56080;47.594;19.116;2022-09-17T21:57:51;99247;;;12.26;83.18
69027;BME280;56080;47.594;19.116;2022-09-17T22:02:53;99239;;;12.17;82.75
69027;BME280;56080;47.594;19.116;2022-09-17T22:07:51;99248;;;12.26;83.21
69027;BME280;56080;47.594;19.116;2022-09-17T22:12:51;99248;;;12.08;83.76
69027;BME280;56080;47.594;19.116;2022-09-17T22:17:51;99246;;;11.93;82.93
69027;BME280;56080;47.594;19.116;2022-09-17T22:22:51;99254;;;11.92;83.06
69027;BME280;56080;47.594;19.116;2022-09-17T22:28:01;99262;;;11.78;82.96
69027;BME280;56080;47.594;19.116;2022-09-17T22:32:52;99257;;;11.66;83.68
69027;BME280;56080;47.594;19.116;2022-09-17T22:37:51;99265;;;11.60;84.64
69027;BME280;56080;47.594;19.116;2022-09-17T22:42:51;99268;;;11.67;84.16
69027;BME280;56080;47.594;19.116;2022-09-17T22:47:51;99268;;;11.40;85.13
69027;BME280;56080;47.594;19.116;2022-09-17T22:52:51;99274;;;11.51;85.43
69027;BME280;56080;47.594;19.116;2022-09-17T22:57:51;99276;;;11.45;85.30
69027;BME280;56080;47.594;19.116;2022-09-17T23:02:51;99273;;;11.41;85.28
69027;BME280;56080;47.594;19.116;2022-09-17T23:07:51;99283;;;11.27;86.82
69027;BME280;56080;47.594;19.116;2022-09-17T23:12:52;99280;;;11.30;87.32
69027;BME280;56080;47.594;19.116;2022-09-17T23:17:51;99284;;;11.31;88.10
69027;BME280;56080;47.594;19.116;2022-09-17T23:22:51;99292;;;11.27;88.86
69027;BME280;56080;47.594;19.116;2022-09-17T23:27:52;99294;;;11.13;89.41
69027;BME280;56080;47.594;19.116;2022-09-17T23:32:52;99302;;;11.02;90.17
69027;BME280;56080;47.594;19.116;2022-09-17T23:37:51;99302;;;11.03;89.30
69027;BME280;56080;47.594;19.116;2022-09-17T23:42:51;99316;;;11.16;88.95
69027;BME280;56080;47.594;19.116;2022-09-17T23:47:51;99315;;;11.13;88.21
69027;BME280;56080;47.594;19.116;2022-09-17T23:52:51;99324;;;11.12;87.65
